Time;durP1;ratioP1;P1;durP2;ratioP2;P2;SDS_P1;SDS_P2;PMS_P1;PMS_P2;Temp;Humidity;BMP_temperature;BMP_pressure;BME280_temperature;BME280_humidity;BME280_pressure;Samples;Min_cycle;Max_cycle;Signal;HPM_P1;HPM_P2
2023/11/20 00:01:28;;;;;;;15.05;8.60;;;;;;;;;;10285599;28;20486;-62
2023/11/20 00:06:30;;;;;;;19.15;7.90;;;;;;;;;;10286139;28;20382;-61
2023/11/20 00:11:31;;;;;;;12.77;7.82;;;;;;;;;;10285384;28;20045;-61
2023/11/20 00:16:32;;;;;;;9.55;7.22;;;;;;;;;;10287634;28;20042;-62
2023/11/20 00:21:33;;;;;;;14.60;8.45;;;;;;;;;;10290506;28;20096;-62
2023/11/20 00:26:34;;;;;;;11.63;7.40;;;;;;;;;;10290906;28;20440;-62
2023/11/20 00:31:35;;;;;;;11.35;7.40;;;;;;;;;;10292617;28;20244;-62
2023/11/20 00:36:35;;;;;;;11.55;7.10;;;;;;;;;;10292657;28;20082;-62
2023/11/20 00:41:36;;;;;;;10.55;7.15;;;;;;;;;;10275409;28;20474;-62
2023/11/20 00:46:36;;;;;;;13.45;7.45;;;;;;;;;;10277197;28;20501;-62
2023/11/20 00:51:37;;;;;;;11.20;6.75;;;;;;;;;;10284913;28;20058;-62
2023/11/20 00:56:38;;;;;;;7.43;6.32;;;;;;;;;;10282123;28;20030;-62
2023/11/20 01:01:38;;;;;;;8.18;6.13;;;;;;;;;;10283428;28;20043;-62
2023/11/20 01:06:42;;;;;;;14.40;7.15;;;;;;;;;;10283463;28;20442;-62
2023/11/20 01:11:44;;;;;;;9.32;6.35;;;;;;;;;;10276053;28;20046;-62
2023/11/20 01:16:44;;;;;;;8.85;6.55;;;;;;;;;;10283181;28;20109;-62
2023/11/20 01:21:45;;;;;;;8.23;6.80;;;;;;;;;;10282593;28;20050;-62
2023/11/20 01:26:45;;;;;;;10.23;6.53;;;;;;;;;;10283884;28;20034;-62
2023/11/20 01:31:46;;;;;;;7.65;6.00;;;;;;;;;;10298158;28;20088;-62
2023/11/20 01:36:48;;;;;;;11.18;6.60;;;;;;;;;;10283206;28;20291;-62
2023/11/20 01:41:48;;;;;;;10.80;6.32;;;;;;;;;;10280320;28;20039;-62
2023/11/20 01:46:49;;;;;;;10.15;6.75;;;;;;;;;;10284226;28;20044;-62
2023/11/20 01:51:50;;;;;;;8.30;6.47;;;;;;;;;;10282840;28;20194;-62
2023/11/20 01:56:51;;;;;;;11.35;6.05;;;;;;;;;;10282913;28;20035;-62
2023/11/20 02:01:52;;;;;;;9.80;6.88;;;;;;;;;;10282923;28;20250;-62
2023/11/20 02:06:53;;;;;;;12.90;6.60;;;;;;;;;;10282536;28;20622;-62
2023/11/20 02:11:54;;;;;;;9.05;6.57;;;;;;;;;;10281793;28;20042;-62
2023/11/20 02:16:54;;;;;;;10.20;6.57;;;;;;;;;;10282302;28;20035;-62
2023/11/20 02:21:55;;;;;;;8.65;6.18;;;;;;;;;;10282523;28;20088;-62
2023/11/20 02:27:32;;;;;;;12.52;6.72;;;;;;;;;;10282915;28;20039;-62
2023/11/20 02:32:33;;;;;;;8.10;6.10;;;;;;;;;;10282015;28;20113;-62
2023/11/20 02:37:34;;;;;;;9.65;6.57;;;;;;;;;;10282558;28;20034;-61
2023/11/20 02:42:35;;;;;;;9.07;6.35;;;;;;;;;;10282485;28;20062;-61
2023/11/20 02:47:36;;;;;;;9.73;6.28;;;;;;;;;;10285209;28;20033;-62
2023/11/20 02:52:36;;;;;;;7.88;6.18;;;;;;;;;;10288975;28;20046;-62
2023/11/20 02:57:37;;;;;;;7.05;5.90;;;;;;;;;;10289180;28;20034;-62
2023/11/20 03:02:38;;;;;;;8.15;5.68;;;;;;;;;;10288611;28;20050;-61
2023/11/20 03:07:38;;;;;;;9.02;6.28;;;;;;;;;;10288333;28;20039;-62
2023/11/20 03:12:39;;;;;;;7.43;5.70;;;;;;;;;;10288461;28;20031;-62
2023/11/20 03:17:39;;;;;;;7.07;5.80;;;;;;;;;;10288197;28;20042;-61
2023/11/20 03:22:40;;;;;;;7.45;5.57;;;;;;;;;;10286895;28;20039;-62
2023/11/20 03:27:40;;;;;;;8.05;5.75;;;;;;;;;;10287459;28;20360;-62
2023/11/20 03:32:41;;;;;;;6.97;5.43;;;;;;;;;;10287841;28;20042;-62
2023/11/20 03:37:42;;;;;;;8.50;6.10;;;;;;;;;;10286874;28;20095;-62
2023/11/20 03:42:43;;;;;;;7.53;5.78;;;;;;;;;;10286367;28;20086;-62
2023/11/20 03:47:43;;;;;;;6.85;5.63;;;;;;;;;;10287840;28;20510;-62
2023/11/20 03:52:44;;;;;;;8.32;5.50;;;;;;;;;;10286864;28;20058;-64
2023/11/20 03:57:47;;;;;;;7.18;5.22;;;;;;;;;;10286517;28;20031;-63
2023/11/20 04:02:48;;;;;;;6.85;5.07;;;;;;;;;;10285657;28;20039;-63
2023/11/20 04:07:48;;;;;;;7.80;5.55;;;;;;;;;;10286532;28;20031;-65
2023/11/20 04:12:49;;;;;;;8.00;5.05;;;;;;;;;;10286028;28;20085;-61
2023/11/20 04:17:50;;;;;;;6.80;5.15;;;;;;;;;;10286238;28;20038;-61
2023/11/20 04:22:50;;;;;;;6.43;5.00;;;;;;;;;;10285546;28;20252;-61
2023/11/20 04:27:51;;;;;;;6.97;5.32;;;;;;;;;;10285671;28;20031;-62
2023/11/20 04:32:52;;;;;;;6.00;4.40;;;;;;;;;;10284973;28;20034;-63
2023/11/20 04:37:52;;;;;;;5.78;4.70;;;;;;;;;;10284947;28;20058;-62
2023/11/20 04:42:53;;;;;;;4.80;4.30;;;;;;;;;;10284624;28;20041;-62
2023/11/20 04:47:54;;;;;;;7.15;4.85;;;;;;;;;;10284735;28;20031;-61
2023/11/20 04:52:54;;;;;;;5.72;4.65;;;;;;;;;;10284399;28;20058;-63
2023/11/20 04:57:57;;;;;;;6.45;5.07;;;;;;;;;;10285422;28;20051;-63
2023/11/20 05:02:57;;;;;;;6.28;4.63;;;;;;;;;;10284056;28;20083;-62
2023/11/20 05:07:59;;;;;;;5.15;4.53;;;;;;;;;;10284549;28;20117;-65
2023/11/20 05:13:00;;;;;;;4.60;4.13;;;;;;;;;;10284020;28;20031;-63
2023/11/20 05:18:01;;;;;;;5.00;4.15;;;;;;;;;;10284459;28;20125;-64
2023/11/20 05:23:02;;;;;;;5.43;4.53;;;;;;;;;;10283808;28;20043;-62
2023/11/20 05:28:02;;;;;;;4.95;4.30;;;;;;;;;;10283648;28;20042;-62
2023/11/20 05:33:03;;;;;;;5.40;4.13;;;;;;;;;;10283929;28;20030;-62
2023/11/20 05:38:03;;;;;;;5.75;4.75;;;;;;;;;;10283334;28;20023;-63
2023/11/20 05:43:04;;;;;;;4.50;3.78;;;;;;;;;;10282204;28;20431;-62
2023/11/20 05:48:05;;;;;;;4.88;4.40;;;;;;;;;;10283172;28;20023;-62
2023/11/20 05:53:06;;;;;;;5.05;4.05;;;;;;;;;;10275532;28;21779;-62
2023/11/20 05:58:06;;;;;;;5.68;4.45;;;;;;;;;;10273960;28;20033;-62
2023/11/20 06:03:07;;;;;;;6.68;4.47;;;;;;;;;;10284343;28;20035;-62
2023/11/20 06:08:08;;;;;;;5.05;4.07;;;;;;;;;;10282056;28;20033;-61
2023/11/20 06:13:09;;;;;;;5.88;4.22;;;;;;;;;;10286517;28;20068;-65
2023/11/20 06:18:09;;;;;;;5.20;4.53;;;;;;;;;;10294528;28;20383;-62
2023/11/20 06:23:10;;;;;;;7.32;4.53;;;;;;;;;;10287933;28;20031;-65
2023/11/20 06:28:11;;;;;;;6.80;4.20;;;;;;;;;;10289416;28;20475;-62
2023/11/20 06:33:11;;;;;;;4.88;4.32;;;;;;;;;;10290909;28;20078;-61
2023/11/20 06:38:12;;;;;;;4.45;3.83;;;;;;;;;;10284379;28;20027;-62
2023/11/20 06:43:13;;;;;;;8.70;3.83;;;;;;;;;;10265387;28;20166;-60
2023/11/20 06:48:14;;;;;;;16.20;4.28;;;;;;;;;;10283555;28;20282;-67
2023/11/20 06:53:14;;;;;;;6.45;4.50;;;;;;;;;;10288854;28;20294;-60
2023/11/20 06:58:15;;;;;;;5.40;4.13;;;;;;;;;;10298917;28;20038;-60
2023/11/20 07:03:19;;;;;;;8.18;4.63;;;;;;;;;;10281546;28;20034;-61
2023/11/20 07:08:22;;;;;;;8.57;4.38;;;;;;;;;;10284083;28;20037;-60
2023/11/20 07:13:23;;;;;;;6.32;4.63;;;;;;;;;;10277593;28;20081;-60
2023/11/20 07:18:24;;;;;;;10.27;4.82;;;;;;;;;;10287411;28;20027;-60
2023/11/20 07:23:25;;;;;;;13.52;4.63;;;;;;;;;;10278002;28;20110;-60
2023/11/20 07:28:25;;;;;;;8.90;4.65;;;;;;;;;;10278488;28;20474;-60
2023/11/20 07:33:26;;;;;;;16.85;4.88;;;;;;;;;;10288449;28;20027;-60
2023/11/20 07:38:27;;;;;;;9.88;4.88;;;;;;;;;;10288530;28;20039;-60
2023/11/20 07:43:28;;;;;;;7.00;5.13;;;;;;;;;;10288240;28;20390;-60
2023/11/20 07:48:29;;;;;;;6.50;4.60;;;;;;;;;;10288157;28;20332;-61
2023/11/20 07:53:29;;;;;;;10.55;4.93;;;;;;;;;;10287875;28;20035;-60
2023/11/20 07:58:30;;;;;;;7.20;4.60;;;;;;;;;;10287600;28;20382;-60
2023/11/20 08:03:30;;;;;;;7.28;4.80;;;;;;;;;;10287712;28;20046;-60
2023/11/20 08:08:31;;;;;;;13.10;5.22;;;;;;;;;;10287224;28;20390;-61
2023/11/20 08:13:32;;;;;;;8.00;4.88;;;;;;;;;;10286320;28;20446;-60
2023/11/20 08:18:36;;;;;;;8.10;4.65;;;;;;;;;;10287463;28;20096;-61
2023/11/20 08:23:37;;;;;;;6.63;4.57;;;;;;;;;;10285556;28;20018;-60
2023/11/20 08:28:37;;;;;;;9.27;4.93;;;;;;;;;;10286003;28;20372;-62
2023/11/20 08:33:38;;;;;;;11.50;5.28;;;;;;;;;;10286391;28;20019;-61
2023/11/20 08:38:39;;;;;;;10.48;5.22;;;;;;;;;;10286518;28;20043;-60
2023/11/20 08:43:40;;;;;;;9.05;4.88;;;;;;;;;;10293310;28;20034;-61
2023/11/20 08:48:41;;;;;;;11.73;4.47;;;;;;;;;;10286224;28;20045;-60
2023/11/20 08:53:41;;;;;;;15.30;4.57;;;;;;;;;;10285076;28;20529;-63
2023/11/20 08:58:43;;;;;;;7.32;4.75;;;;;;;;;;10285172;28;20246;-67
2023/11/20 09:03:43;;;;;;;11.15;4.32;;;;;;;;;;10285469;28;20069;-67
2023/11/20 09:08:44;;;;;;;5.68;4.35;;;;;;;;;;10284964;28;20494;-67
2023/11/20 09:13:44;;;;;;;10.13;4.53;;;;;;;;;;10285422;28;20027;-66
2023/11/20 09:18:45;;;;;;;7.03;4.70;;;;;;;;;;10284882;28;20022;-62
2023/11/20 09:23:46;;;;;;;8.75;4.72;;;;;;;;;;10284721;28;20034;-66
2023/11/20 09:28:46;;;;;;;6.85;4.28;;;;;;;;;;10284085;28;20068;-65
2023/11/20 09:33:49;;;;;;;7.05;4.22;;;;;;;;;;10282768;28;20463;-61
2023/11/20 09:38:49;;;;;;;7.43;4.60;;;;;;;;;;10273150;28;20027;-60
2023/11/20 09:43:51;;;;;;;5.50;3.70;;;;;;;;;;10267309;28;20038;-61
2023/11/20 09:48:54;;;;;;;5.15;4.00;;;;;;;;;;10249962;28;20027;-60
2023/11/20 09:53:57;;;;;;;6.90;4.38;;;;;;;;;;10249640;28;20588;-60
2023/11/20 09:58:57;;;;;;;6.47;4.05;;;;;;;;;;10283706;28;20110;-60
2023/11/20 10:03:59;;;;;;;4.95;3.85;;;;;;;;;;10262652;28;20035;-60
2023/11/20 10:09:02;;;;;;;7.82;4.45;;;;;;;;;;10283811;28;20406;-60
2023/11/20 10:14:02;;;;;;;7.68;4.00;;;;;;;;;;10283930;28;20135;-60
2023/11/20 10:19:04;;;;;;;5.32;4.07;;;;;;;;;;10280897;28;20094;-60
2023/11/20 10:24:06;;;;;;;5.72;4.05;;;;;;;;;;10293161;28;20117;-62
2023/11/20 10:29:09;;;;;;;8.25;3.92;;;;;;;;;;10316490;28;20031;-60
2023/11/20 10:34:10;;;;;;;6.82;3.97;;;;;;;;;;10295989;28;20083;-60
2023/11/20 10:39:14;;;;;;;5.47;3.78;;;;;;;;;;10290416;28;20065;-60
2023/11/20 10:44:15;;;;;;;5.78;3.90;;;;;;;;;;10290613;28;20035;-63
2023/11/20 10:49:22;;;;;;;6.20;3.95;;;;;;;;;;10291463;28;20039;-61
2023/11/20 10:54:32;;;;;;;7.53;4.22;;;;;;;;;;10286017;28;20446;-60
2023/11/20 10:59:36;;;;;;;4.03;3.30;;;;;;;;;;10290469;28;20042;-60
2023/11/20 11:04:39;;;;;;;5.43;4.05;;;;;;;;;;10290511;28;20046;-64
2023/11/20 11:09:42;;;;;;;7.22;4.03;;;;;;;;;;10288847;28;20125;-66
2023/11/20 11:14:44;;;;;;;7.30;4.05;;;;;;;;;;10289486;28;20030;-60
2023/11/20 11:20:12;;;;;;;6.82;4.18;;;;;;;;;;10289272;28;20493;-60
2023/11/20 11:25:14;;;;;;;5.30;3.90;;;;;;;;;;10287944;28;20058;-60
2023/11/20 11:30:16;;;;;;;6.80;3.83;;;;;;;;;;10303325;28;20097;-61
2023/11/20 11:36:20;;;;;;;6.50;3.90;;;;;;;;;;10286767;28;20367;-62
2023/11/20 11:41:39;;;;;;;4.68;3.50;;;;;;;;;;10286708;28;20082;-60
2023/11/20 11:46:43;;;;;;;8.38;4.35;;;;;;;;;;10287644;28;20027;-60
2023/11/20 11:51:45;;;;;;;5.43;3.75;;;;;;;;;;10300220;23;20141;-61
2023/11/20 11:57:30;;;;;;;5.35;4.00;;;;;;;;;;10288100;28;20167;-59
2023/11/20 12:02:49;;;;;;;5.20;3.90;;;;;;;;;;10274730;28;20130;-62
2023/11/20 12:08:01;;;;;;;7.78;3.30;;;;;;;;;;10286967;28;20386;-54
2023/11/20 12:13:11;;;;;;;4.78;3.50;;;;;;;;;;10287012;28;20057;-54
2023/11/20 12:18:24;;;;;;;5.05;3.70;;;;;;;;;;10285965;28;20039;-56
2023/11/20 12:23:39;;;;;;;5.40;3.97;;;;;;;;;;10285549;28;20439;-53
2023/11/20 12:28:41;;;;;;;5.10;3.70;;;;;;;;;;10286455;28;20129;-54
2023/11/20 12:33:44;;;;;;;6.05;4.07;;;;;;;;;;10283788;28;20042;-58
2023/11/20 12:38:45;;;;;;;4.63;3.75;;;;;;;;;;10279953;28;20068;-59
2023/11/20 12:43:48;;;;;;;5.63;3.65;;;;;;;;;;10285222;28;20513;-60
2023/11/20 12:48:48;;;;;;;5.53;3.80;;;;;;;;;;10283035;28;20143;-59
2023/11/20 12:53:49;;;;;;;3.80;3.22;;;;;;;;;;10285029;28;20178;-61
2023/11/20 12:58:53;;;;;;;4.30;3.65;;;;;;;;;;10275267;28;20431;-60
2023/11/20 13:03:53;;;;;;;5.03;3.30;;;;;;;;;;10283087;28;20034;-60
2023/11/20 13:08:54;;;;;;;4.82;3.90;;;;;;;;;;10284670;28;20023;-60
2023/11/20 13:13:57;;;;;;;7.10;3.67;;;;;;;;;;10283848;28;20027;-59
2023/11/20 13:18:59;;;;;;;5.32;3.75;;;;;;;;;;10283444;28;20513;-60
2023/11/20 13:24:10;;;;;;;5.45;3.45;;;;;;;;;;10283238;28;20026;-60
2023/11/20 13:29:11;;;;;;;8.88;3.35;;;;;;;;;;10280447;28;20038;-60
2023/11/20 13:34:13;;;;;;;4.85;3.65;;;;;;;;;;10278927;28;20422;-60
2023/11/20 13:39:18;;;;;;;5.80;3.65;;;;;;;;;;10255901;28;20054;-60
2023/11/20 13:44:19;;;;;;;4.68;3.03;;;;;;;;;;10250520;28;20032;-61
2023/11/20 13:49:23;;;;;;;5.88;3.47;;;;;;;;;;10261063;28;20023;-60
2023/11/20 13:54:24;;;;;;;4.60;3.10;;;;;;;;;;10283922;28;20410;-60
2023/11/20 13:59:25;;;;;;;6.45;3.60;;;;;;;;;;10283611;28;20023;-62
2023/11/20 14:04:25;;;;;;;3.78;3.30;;;;;;;;;;10283863;28;20031;-60
2023/11/20 14:09:26;;;;;;;4.85;3.40;;;;;;;;;;10283377;28;20406;-60
2023/11/20 14:14:26;;;;;;;4.13;3.58;;;;;;;;;;10280809;28;20371;-60
2023/11/20 14:19:27;;;;;;;5.60;3.60;;;;;;;;;;10272285;28;20035;-61
2023/11/20 14:24:28;;;;;;;5.50;3.83;;;;;;;;;;10283397;28;20023;-61
2023/11/20 14:29:29;;;;;;;5.10;3.58;;;;;;;;;;10272071;28;20043;-61
2023/11/20 14:34:30;;;;;;;7.22;3.72;;;;;;;;;;10264596;28;20281;-61
2023/11/20 14:39:31;;;;;;;7.30;4.20;;;;;;;;;;10293285;28;20649;-61
2023/11/20 14:44:32;;;;;;;4.43;3.80;;;;;;;;;;10294700;28;20485;-61
2023/11/20 14:49:33;;;;;;;5.35;3.97;;;;;;;;;;10291113;28;20027;-61
2023/11/20 14:54:34;;;;;;;4.32;3.25;;;;;;;;;;10258011;28;20075;-58
2023/11/20 14:59:34;;;;;;;3.47;3.17;;;;;;;;;;10266065;28;20032;-60
2023/11/20 15:04:36;;;;;;;9.75;3.92;;;;;;;;;;10253029;28;20392;-62
2023/11/20 15:09:37;;;;;;;6.95;3.58;;;;;;;;;;10256335;28;20049;-59
2023/11/20 15:14:38;;;;;;;6.00;4.38;;;;;;;;;;10254132;28;20050;-61
2023/11/20 15:19:38;;;;;;;6.47;3.50;;;;;;;;;;10257484;28;20430;-60
2023/11/20 15:24:39;;;;;;;5.45;3.38;;;;;;;;;;10266332;28;20028;-62
2023/11/20 15:29:41;;;;;;;5.85;4.22;;;;;;;;;;10259441;28;20027;-57
2023/11/20 15:34:41;;;;;;;5.25;3.72;;;;;;;;;;10255038;28;20031;-57
2023/11/20 15:39:43;;;;;;;5.65;3.85;;;;;;;;;;10254239;28;20034;-58
2023/11/20 15:44:43;;;;;;;5.68;3.63;;;;;;;;;;10258949;28;20157;-57
2023/11/20 15:49:44;;;;;;;4.85;3.78;;;;;;;;;;10255519;28;20085;-57
2023/11/20 15:54:44;;;;;;;7.88;3.78;;;;;;;;;;10275999;28;20034;-56
2023/11/20 15:59:46;;;;;;;5.25;3.65;;;;;;;;;;10263385;28;20027;-58
2023/11/20 16:04:47;;;;;;;5.18;3.72;;;;;;;;;;10275019;28;20113;-60
2023/11/20 16:09:48;;;;;;;4.13;3.55;;;;;;;;;;10259718;28;20042;-58
2023/11/20 16:14:48;;;;;;;6.72;3.80;;;;;;;;;;10263186;28;20023;-55
2023/11/20 16:19:50;;;;;;;4.82;3.70;;;;;;;;;;10274300;28;20422;-57
2023/11/20 16:24:51;;;;;;;5.05;3.53;;;;;;;;;;10282068;28;20030;-56
2023/11/20 16:29:51;;;;;;;6.95;3.60;;;;;;;;;;10291070;28;20042;-58
2023/11/20 16:34:52;;;;;;;9.63;4.38;;;;;;;;;;10288318;28;20035;-55
2023/11/20 16:39:53;;;;;;;8.75;4.13;;;;;;;;;;10293886;28;20483;-57
2023/11/20 16:44:54;;;;;;;8.75;4.50;;;;;;;;;;10291400;28;20112;-55
2023/11/20 16:49:55;;;;;;;7.60;4.82;;;;;;;;;;10288228;28;20451;-56
2023/11/20 16:54:57;;;;;;;5.53;4.65;;;;;;;;;;10297118;28;20023;-55
2023/11/20 16:59:58;;;;;;;6.68;4.95;;;;;;;;;;10291255;28;20023;-56
2023/11/20 17:04:58;;;;;;;7.65;5.00;;;;;;;;;;10285922;28;20035;-54
2023/11/20 17:09:59;;;;;;;8.20;5.05;;;;;;;;;;10253715;28;20026;-55
2023/11/20 17:15:00;;;;;;;6.00;4.35;;;;;;;;;;10293842;28;20060;-55
2023/11/20 17:20:01;;;;;;;8.57;5.10;;;;;;;;;;10273289;28;20027;-55
2023/11/20 17:25:02;;;;;;;8.02;5.20;;;;;;;;;;10263688;28;20039;-56
2023/11/20 17:30:06;;;;;;;8.63;5.70;;;;;;;;;;10292295;28;20434;-54
2023/11/20 17:35:07;;;;;;;11.05;5.60;;;;;;;;;;10283735;28;20035;-55
2023/11/20 17:40:09;;;;;;;8.38;5.30;;;;;;;;;;10286115;28;20041;-54
2023/11/20 17:45:10;;;;;;;10.80;5.55;;;;;;;;;;10292434;28;20054;-58
2023/11/20 17:50:11;;;;;;;8.85;5.80;;;;;;;;;;10293005;28;20118;-55
2023/11/20 17:55:12;;;;;;;9.52;6.38;;;;;;;;;;10291616;28;20027;-58
2023/11/20 18:00:13;;;;;;;8.93;6.40;;;;;;;;;;10285376;28;20039;-56
2023/11/20 18:05:14;;;;;;;7.85;5.65;;;;;;;;;;10283868;28;20029;-56
2023/11/20 18:10:14;;;;;;;8.40;5.72;;;;;;;;;;10283722;28;20023;-55
2023/11/20 18:15:17;;;;;;;10.15;6.35;;;;;;;;;;10283718;28;20019;-57
2023/11/20 18:20:18;;;;;;;9.65;6.40;;;;;;;;;;10294094;28;20149;-55
2023/11/20 18:25:20;;;;;;;14.32;5.97;;;;;;;;;;10283292;28;20058;-57
2023/11/20 18:30:21;;;;;;;11.20;6.63;;;;;;;;;;10260207;28;20098;-58
2023/11/20 18:35:22;;;;;;;17.42;6.57;;;;;;;;;;10291233;28;20074;-58
2023/11/20 18:40:23;;;;;;;19.48;6.18;;;;;;;;;;10287658;28;20213;-57
2023/11/20 18:45:24;;;;;;;10.23;6.95;;;;;;;;;;10270527;28;20078;-58
2023/11/20 18:50:25;;;;;;;13.45;7.95;;;;;;;;;;10288450;28;20116;-57
2023/11/20 18:55:26;;;;;;;12.68;8.18;;;;;;;;;;10288270;28;20102;-57
2023/11/20 19:00:26;;;;;;;15.80;8.57;;;;;;;;;;10292695;28;20438;-58
2023/11/20 19:05:27;;;;;;;16.98;8.98;;;;;;;;;;10277002;28;20023;-57
2023/11/20 19:10:28;;;;;;;13.25;7.97;;;;;;;;;;10285370;28;20054;-56
2023/11/20 19:15:29;;;;;;;10.65;7.90;;;;;;;;;;10272631;28;20490;-55
2023/11/20 19:20:30;;;;;;;10.25;8.02;;;;;;;;;;10271599;28;20387;-57
2023/11/20 19:25:31;;;;;;;12.13;7.43;;;;;;;;;;10269800;28;20037;-57
2023/11/20 19:30:34;;;;;;;10.55;8.00;;;;;;;;;;10283728;28;20050;-54
2023/11/20 19:35:37;;;;;;;11.73;7.82;;;;;;;;;;10279180;28;20026;-54
2023/11/20 19:40:38;;;;;;;16.52;8.10;;;;;;;;;;10282393;28;20034;-56
2023/11/20 19:45:39;;;;;;;21.08;8.13;;;;;;;;;;10287320;28;20387;-58
2023/11/20 19:50:40;;;;;;;18.05;8.63;;;;;;;;;;10283270;28;20047;-58
2023/11/20 19:55:41;;;;;;;16.67;8.55;;;;;;;;;;10289254;28;20277;-58
2023/11/20 20:00:42;;;;;;;21.30;8.52;;;;;;;;;;10287706;28;20193;-58
2023/11/20 20:05:43;;;;;;;15.55;7.85;;;;;;;;;;10287224;28;20421;-59
2023/11/20 20:10:44;;;;;;;16.20;9.02;;;;;;;;;;10288833;28;20041;-55
2023/11/20 20:15:44;;;;;;;14.02;7.88;;;;;;;;;;10292544;28;20053;-56
2023/11/20 20:20:46;;;;;;;14.27;7.55;;;;;;;;;;10280962;28;20481;-56
2023/11/20 20:25:47;;;;;;;17.48;7.85;;;;;;;;;;10285179;28;20035;-57
2023/11/20 20:30:47;;;;;;;11.18;7.18;;;;;;;;;;10287004;28;20034;-57
2023/11/20 20:35:48;;;;;;;15.57;8.35;;;;;;;;;;10282686;28;20501;-58
2023/11/20 20:40:48;;;;;;;11.77;7.72;;;;;;;;;;10277099;28;20508;-58
2023/11/20 20:45:50;;;;;;;11.63;7.90;;;;;;;;;;10285170;28;20026;-56
2023/11/20 20:50:51;;;;;;;13.20;7.47;;;;;;;;;;10284387;28;20454;-56
2023/11/20 20:55:51;;;;;;;11.57;7.68;;;;;;;;;;10284482;28;20023;-56
2023/11/20 21:00:52;;;;;;;12.25;7.38;;;;;;;;;;10284508;28;20019;-57
2023/11/20 21:05:53;;;;;;;11.32;7.40;;;;;;;;;;10280006;28;20030;-56
2023/11/20 21:11:01;;;;;;;11.07;7.57;;;;;;;;;;10282067;28;20126;-57
2023/11/20 21:16:01;;;;;;;9.73;6.43;;;;;;;;;;10279950;28;20069;-57
2023/11/20 21:21:03;;;;;;;11.35;7.38;;;;;;;;;;10283856;28;20041;-55
2023/11/20 21:26:04;;;;;;;11.73;7.07;;;;;;;;;;10282081;28;20034;-56
2023/11/20 21:31:07;;;;;;;10.25;6.82;;;;;;;;;;10280943;28;20403;-57
2023/11/20 21:36:11;;;;;;;11.82;6.88;;;;;;;;;;10283372;28;20033;-56
2023/11/20 21:41:12;;;;;;;13.07;7.05;;;;;;;;;;10281870;28;20027;-57
2023/11/20 21:46:13;;;;;;;10.77;6.88;;;;;;;;;;10277317;28;20390;-57
2023/11/20 21:51:13;;;;;;;11.00;6.60;;;;;;;;;;10285579;28;20241;-58
2023/11/20 21:56:14;;;;;;;9.15;6.47;;;;;;;;;;10292242;28;20205;-57
2023/11/20 22:01:18;;;;;;;10.07;6.22;;;;;;;;;;10291807;28;20355;-56
2023/11/20 22:06:20;;;;;;;15.00;6.88;;;;;;;;;;10291158;28;20041;-57
2023/11/20 22:11:21;;;;;;;10.52;6.72;;;;;;;;;;10292115;28;20381;-62
2023/11/20 22:16:22;;;;;;;9.13;6.18;;;;;;;;;;10290943;28;20038;-56
2023/11/20 22:21:22;;;;;;;7.82;5.82;;;;;;;;;;10291475;28;20030;-58
2023/11/20 22:26:23;;;;;;;11.20;6.35;;;;;;;;;;10290626;28;20113;-57
2023/11/20 22:31:24;;;;;;;9.27;6.50;;;;;;;;;;10289235;28;20045;-56
2023/11/20 22:36:24;;;;;;;15.57;6.68;;;;;;;;;;10291238;28;20494;-55
2023/11/20 22:41:25;;;;;;;10.77;7.28;;;;;;;;;;10291072;28;20467;-53
2023/11/20 22:46:25;;;;;;;21.48;7.95;;;;;;;;;;10289194;28;20027;-55
2023/11/20 22:51:26;;;;;;;17.55;7.40;;;;;;;;;;10279442;28;20055;-61
2023/11/20 22:56:28;;;;;;;25.88;8.57;;;;;;;;;;10279675;28;20052;-59
2023/11/20 23:01:28;;;;;;;14.32;7.63;;;;;;;;;;10288388;28;20097;-58
2023/11/20 23:06:29;;;;;;;11.75;7.10;;;;;;;;;;10286573;28;20019;-60
2023/11/20 23:11:29;;;;;;;10.63;6.93;;;;;;;;;;10299920;28;20085;-58
2023/11/20 23:16:30;;;;;;;18.42;7.88;;;;;;;;;;10285369;28;20115;-58
2023/11/20 23:21:30;;;;;;;23.05;7.38;;;;;;;;;;10284918;28;20030;-61
2023/11/20 23:26:31;;;;;;;16.50;7.43;;;;;;;;;;10284187;28;20034;-58
2023/11/20 23:31:36;;;;;;;10.77;7.00;;;;;;;;;;10285670;28;20035;-58
2023/11/20 23:36:37;;;;;;;14.15;6.97;;;;;;;;;;10287002;28;20023;-58
2023/11/20 23:41:37;;;;;;;12.73;7.00;;;;;;;;;;10285931;28;20149;-58
2023/11/20 23:46:38;;;;;;;9.98;6.63;;;;;;;;;;10287889;28;20019;-58
2023/11/20 23:51:38;;;;;;;9.48;6.13;;;;;;;;;;10287563;28;20046;-58
2023/11/20 23:56:39;;;;;;;15.57;6.28;;;;;;;;;;10286966;28;20058;-60
